Time;durP1;ratioP1;P1;durP2;ratioP2;P2;SDS_P1;SDS_P2;PMS_P1;PMS_P2;Temp;Humidity;BMP_temperature;BMP_pressure;BME280_temperature;BME280_humidity;BME280_pressure;Samples;Min_cycle;Max_cycle;Signal;HPM_P1;HPM_P2
2023/01/07 00:01:06;;;;;;;1.60;1.10;;;11.20;98.20;;;;;;5001575;28;20496;-75
2023/01/07 00:03:33;;;;;;;1.60;1.10;;;11.20;98.20;;;;;;5022454;28;20751;-75
2023/01/07 00:06:00;;;;;;;1.60;1.20;;;11.20;98.20;;;;;;5000453;28;20472;-75
2023/01/07 00:08:30;;;;;;;1.60;1.20;;;11.20;98.20;;;;;;5020874;28;20484;-75
2023/01/07 00:10:57;;;;;;;1.60;1.10;;;11.20;98.20;;;;;;4999849;28;20884;-75
2023/01/07 00:13:24;;;;;;;1.60;1.10;;;11.20;98.20;;;;;;5024029;28;20840;-75
2023/01/07 00:15:56;;;;;;;1.60;1.20;;;11.20;98.20;;;;;;4999631;28;20488;-75
2023/01/07 00:18:23;;;;;;;1.60;1.17;;;11.20;98.20;;;;;;5020900;28;20850;-75
2023/01/07 00:20:50;;;;;;;1.60;1.10;;;11.20;98.20;;;;;;4999925;28;20460;-74
2023/01/07 00:23:17;;;;;;;1.60;1.10;;;11.20;98.20;;;;;;5023626;28;20471;-75
2023/01/07 00:25:43;;;;;;;1.60;1.10;;;11.20;98.20;;;;;;5009491;28;20503;-75
2023/01/07 00:28:10;;;;;;;1.60;1.20;;;11.20;98.20;;;;;;5011226;28;20486;-75
2023/01/07 00:30:37;;;;;;;1.60;1.13;;;11.10;98.20;;;;;;5008618;28;20850;-75
2023/01/07 00:33:06;;;;;;;1.60;1.10;;;11.10;98.20;;;;;;5014077;28;20514;-75
2023/01/07 00:35:35;;;;;;;1.60;1.10;;;11.20;98.20;;;;;;5009609;28;20483;-75
2023/01/07 00:38:03;;;;;;;1.60;1.10;;;11.20;98.20;;;;;;5009548;28;20495;-75
2023/01/07 00:40:31;;;;;;;1.60;1.10;;;11.20;98.20;;;;;;5009226;28;20463;-75
2023/01/07 00:43:01;;;;;;;1.60;1.10;;;11.20;98.20;;;;;;5014088;28;20858;-75
2023/01/07 00:45:29;;;;;;;1.60;1.10;;;11.10;98.20;;;;;;5008200;28;20901;-75
2023/01/07 00:47:57;;;;;;;1.53;1.03;;;11.20;98.20;;;;;;5010754;28;20483;-75
2023/01/07 00:50:27;;;;;;;1.60;1.10;;;11.10;98.20;;;;;;5008941;28;20472;-75
2023/01/07 00:52:54;;;;;;;1.60;1.10;;;11.10;98.20;;;;;;5013538;28;20483;-75
2023/01/07 00:55:22;;;;;;;1.60;1.20;;;11.20;98.20;;;;;;5008956;28;20480;-75
2023/01/07 00:57:49;;;;;;;1.60;1.10;;;11.20;98.20;;;;;;5009392;28;20480;-75
2023/01/07 01:00:18;;;;;;;1.60;1.03;;;11.10;98.20;;;;;;5008569;28;20962;-75
2023/01/07 01:02:46;;;;;;;1.60;1.30;;;11.10;98.20;;;;;;5012498;28;20842;-75
2023/01/07 01:05:13;;;;;;;1.60;1.20;;;11.10;98.20;;;;;;5008904;28;20875;-75
2023/01/07 01:07:42;;;;;;;1.60;1.10;;;11.10;98.20;;;;;;5010382;28;20506;-75
2023/01/07 01:10:11;;;;;;;1.60;1.10;;;11.10;98.20;;;;;;5008117;28;20460;-75
2023/01/07 01:12:38;;;;;;;1.60;1.10;;;11.10;98.20;;;;;;5012706;28;21016;-75
2023/01/07 01:15:08;;;;;;;1.60;1.10;;;11.10;98.20;;;;;;5005915;28;20567;-75
2023/01/07 01:17:35;;;;;;;1.60;1.20;;;11.10;98.20;;;;;;5005258;28;20589;-75
2023/01/07 01:20:02;;;;;;;1.60;1.20;;;11.00;98.20;;;;;;5009834;28;20464;-75
2023/01/07 01:22:29;;;;;;;1.60;1.10;;;11.00;98.20;;;;;;5009632;28;20879;-75
2023/01/07 01:24:57;;;;;;;1.60;1.20;;;11.00;98.20;;;;;;5010438;28;20872;-75
2023/01/07 01:27:24;;;;;;;1.60;1.20;;;11.00;98.20;;;;;;5008882;28;20995;-75
2023/01/07 01:29:51;;;;;;;1.60;1.10;;;11.00;98.20;;;;;;5010442;28;20835;-75
2023/01/07 01:32:17;;;;;;;1.60;1.20;;;10.90;98.20;;;;;;5009697;28;20502;-75
2023/01/07 01:34:44;;;;;;;1.60;1.10;;;11.00;98.20;;;;;;5010829;28;20498;-76
2023/01/07 01:37:11;;;;;;;1.60;1.10;;;10.90;98.20;;;;;;4998553;28;20482;-75
2023/01/07 01:39:38;;;;;;;1.60;1.10;;;10.90;98.20;;;;;;5005104;28;20457;-75
2023/01/07 01:42:06;;;;;;;1.60;1.10;;;10.90;98.20;;;;;;5006392;28;20511;-75
2023/01/07 01:44:37;;;;;;;1.60;1.13;;;10.90;98.20;;;;;;5012423;28;20495;-75
2023/01/07 01:47:06;;;;;;;1.60;1.20;;;10.90;98.20;;;;;;5005435;28;20551;-75
2023/01/07 01:49:37;;;;;;;1.60;1.20;;;10.90;98.20;;;;;;5012303;28;20471;-75
2023/01/07 01:52:07;;;;;;;1.60;1.10;;;10.90;98.20;;;;;;5003902;28;20496;-75
2023/01/07 01:54:34;;;;;;;1.60;1.10;;;10.80;98.20;;;;;;5012953;28;20480;-75
2023/01/07 01:57:04;;;;;;;1.60;1.10;;;10.80;98.20;;;;;;5004257;28;20849;-75
2023/01/07 01:59:37;;;;;;;1.60;1.20;;;10.80;98.20;;;;;;5011327;28;20471;-75
2023/01/07 02:02:05;;;;;;;1.60;1.00;;;10.80;98.20;;;;;;5006603;28;20524;-75
2023/01/07 02:04:33;;;;;;;1.60;1.10;;;10.70;98.20;;;;;;5012382;28;20860;-75
2023/01/07 02:07:04;;;;;;;1.60;1.20;;;10.70;98.20;;;;;;4993445;28;20491;-75
2023/01/07 02:09:31;;;;;;;1.60;1.10;;;10.70;98.20;;;;;;5010525;28;20543;-75
2023/01/07 02:12:16;;;;;;;1.60;1.10;;;10.70;98.20;;;;;;5003461;28;20490;-75
2023/01/07 02:15:04;;;;;;;1.60;1.10;;;10.70;98.20;;;;;;5010821;28;20483;-75
2023/01/07 02:17:41;;;;;;;1.60;1.20;;;10.70;98.20;;;;;;5002973;28;20490;-75
2023/01/07 02:20:37;;;;;;;1.60;1.10;;;10.70;98.20;;;;;;5007267;28;20463;-75
2023/01/07 02:23:27;;;;;;;1.60;1.10;;;10.70;98.20;;;;;;5009588;28;20863;-75
2023/01/07 02:26:30;;;;;;;1.60;1.00;;;10.70;98.20;;;;;;4995574;28;20492;-75
2023/01/07 02:29:25;;;;;;;1.60;1.10;;;10.70;98.20;;;;;;5014458;28;20464;-75
2023/01/07 02:32:09;;;;;;;1.60;1.10;;;10.70;98.20;;;;;;5001030;28;20487;-75
2023/01/07 02:34:42;;;;;;;1.60;1.10;;;10.70;98.20;;;;;;5011466;28;20472;-75
2023/01/07 02:37:15;;;;;;;1.60;1.20;;;10.70;98.20;;;;;;5005303;28;20475;-75
2023/01/07 02:39:54;;;;;;;1.60;1.10;;;10.70;98.20;;;;;;5010812;28;20467;-75
2023/01/07 02:42:28;;;;;;;1.60;1.10;;;10.70;98.20;;;;;;5001354;28;21180;-75
2023/01/07 02:45:02;;;;;;;1.60;1.13;;;10.70;98.20;;;;;;5007812;28;20494;-75
2023/01/07 02:47:36;;;;;;;1.60;1.10;;;10.70;98.20;;;;;;5007490;28;20475;-75
2023/01/07 02:50:05;;;;;;;1.60;1.10;;;10.60;98.20;;;;;;5007321;28;20455;-75
2023/01/07 02:52:33;;;;;;;1.60;1.10;;;10.60;98.20;;;;;;5008119;28;20490;-75
2023/01/07 02:55:04;;;;;;;1.60;1.10;;;10.60;98.20;;;;;;5007369;28;20847;-74
2023/01/07 02:58:02;;;;;;;1.60;1.10;;;10.60;98.20;;;;;;5007140;28;21029;-75
2023/01/07 03:01:03;;;;;;;1.60;1.10;;;10.70;98.20;;;;;;4987560;28;20867;-75
2023/01/07 03:03:46;;;;;;;1.60;1.10;;;10.60;98.20;;;;;;4989616;28;20467;-75
2023/01/07 03:06:29;;;;;;;1.60;1.30;;;10.60;98.20;;;;;;4990815;28;20478;-76
2023/01/07 03:09:04;;;;;;;1.60;1.20;;;10.60;98.20;;;;;;5015056;28;20469;-75
2023/01/07 03:11:39;;;;;;;1.60;1.27;;;10.60;98.20;;;;;;5001559;28;20998;-75
2023/01/07 03:14:10;;;;;;;1.60;1.10;;;10.60;98.20;;;;;;5014750;28;20487;-75
2023/01/07 03:16:41;;;;;;;1.60;1.30;;;10.60;98.20;;;;;;4999797;28;20914;-75
2023/01/07 03:19:12;;;;;;;1.60;1.10;;;10.50;98.20;;;;;;5012725;28;20467;-75
2023/01/07 03:21:39;;;;;;;1.60;1.10;;;10.50;98.20;;;;;;5002298;28;20855;-75
2023/01/07 03:24:07;;;;;;;1.60;1.30;;;10.50;98.20;;;;;;5009744;28;20500;-75
2023/01/07 03:26:38;;;;;;;1.60;1.17;;;10.60;98.20;;;;;;4993337;28;20491;-75
2023/01/07 03:29:08;;;;;;;1.60;1.10;;;10.60;98.20;;;;;;5003976;28;20483;-75
2023/01/07 03:31:36;;;;;;;1.60;1.10;;;10.70;98.20;;;;;;5000973;28;20495;-75
2023/01/07 03:34:07;;;;;;;1.67;1.37;;;10.70;98.20;;;;;;5013021;28;20491;-75
2023/01/07 03:36:39;;;;;;;1.70;1.30;;;10.70;98.20;;;;;;4999038;28;20487;-74
2023/01/07 03:39:07;;;;;;;1.60;1.10;;;10.80;98.20;;;;;;5012281;28;20460;-75
2023/01/07 03:44:18;;;;;;;1.60;1.17;;;10.80;98.20;;;;;;5012604;28;20466;-75
2023/01/07 03:46:45;;;;;;;1.60;1.10;;;10.80;98.20;;;;;;5000916;28;20487;-75
2023/01/07 03:49:12;;;;;;;1.60;1.20;;;10.80;98.20;;;;;;5013739;28;20856;-75
2023/01/07 03:51:40;;;;;;;1.60;1.10;;;10.80;98.20;;;;;;5000085;28;20479;-75
2023/01/07 03:54:07;;;;;;;1.60;1.20;;;10.80;98.20;;;;;;5014274;28;20483;-75
2023/01/07 03:56:34;;;;;;;1.60;1.10;;;10.80;98.20;;;;;;5003084;28;20677;-75
2023/01/07 03:59:00;;;;;;;1.60;1.10;;;10.80;98.20;;;;;;5017061;28;20490;-75
2023/01/07 04:01:27;;;;;;;1.60;1.10;;;10.80;98.20;;;;;;5002834;28;20857;-75
2023/01/07 04:03:54;;;;;;;1.60;1.10;;;10.70;98.20;;;;;;5017029;28;20882;-75
2023/01/07 04:06:21;;;;;;;1.60;1.20;;;10.70;98.20;;;;;;4998044;28;20527;-75
2023/01/07 04:08:49;;;;;;;1.60;1.13;;;10.70;98.20;;;;;;5017673;28;20468;-75
2023/01/07 04:11:15;;;;;;;1.60;1.27;;;10.70;98.20;;;;;;4999490;28;20938;-74
2023/01/07 04:13:42;;;;;;;1.60;1.10;;;10.70;98.20;;;;;;5018579;28;20750;-75
2023/01/07 04:16:09;;;;;;;1.60;1.20;;;10.70;98.20;;;;;;5000161;28;20487;-75
2023/01/07 04:18:36;;;;;;;1.60;1.10;;;10.70;98.20;;;;;;5018499;28;20452;-74
2023/01/07 04:21:02;;;;;;;1.60;1.10;;;10.70;98.20;;;;;;4997340;28;20847;-74
2023/01/07 04:23:29;;;;;;;1.60;1.10;;;10.70;98.20;;;;;;5020173;28;20961;-74
2023/01/07 04:25:57;;;;;;;1.60;1.10;;;10.70;98.20;;;;;;4998545;28;20484;-75
2023/01/07 04:28:24;;;;;;;1.60;1.10;;;10.70;98.20;;;;;;5014607;28;20472;-75
2023/01/07 04:30:51;;;;;;;1.60;1.10;;;10.60;98.20;;;;;;4990764;28;20495;-75
2023/01/07 04:33:18;;;;;;;1.60;1.17;;;10.60;98.20;;;;;;5022174;28;20902;-75
2023/01/07 04:35:46;;;;;;;1.60;1.10;;;10.70;98.20;;;;;;5002595;28;21000;-75
2023/01/07 04:38:13;;;;;;;1.60;1.23;;;10.70;98.20;;;;;;4994866;28;20547;-74
2023/01/07 04:40:40;;;;;;;1.60;1.20;;;10.70;98.20;;;;;;5008426;28;20467;-74
2023/01/07 04:43:08;;;;;;;1.60;1.30;;;10.70;98.20;;;;;;5010691;28;21015;-74
2023/01/07 04:45:35;;;;;;;1.60;1.10;;;10.70;98.20;;;;;;5005771;28;20515;-75
2023/01/07 04:48:02;;;;;;;1.60;1.10;;;10.70;98.20;;;;;;5010011;28;21047;-75
2023/01/07 04:50:29;;;;;;;1.60;1.10;;;10.70;98.20;;;;;;5007955;28;20464;-75
2023/01/07 04:52:56;;;;;;;1.60;1.13;;;10.60;98.20;;;;;;5010845;28;20479;-75
2023/01/07 04:55:23;;;;;;;1.60;1.10;;;10.60;98.20;;;;;;5006608;28;20476;-74
2023/01/07 04:57:49;;;;;;;1.60;1.10;;;10.60;98.20;;;;;;5009522;28;20505;-75
2023/01/07 05:00:18;;;;;;;1.60;1.10;;;10.60;98.20;;;;;;5005651;28;20467;-75
2023/01/07 05:02:45;;;;;;;1.60;1.10;;;10.60;98.20;;;;;;5010285;28;20479;-75
2023/01/07 05:05:11;;;;;;;1.60;1.20;;;10.50;98.20;;;;;;5005307;28;20501;-74
2023/01/07 05:07:38;;;;;;;1.60;1.10;;;10.50;98.20;;;;;;5008498;28;20865;-74
2023/01/07 05:10:06;;;;;;;1.60;1.20;;;10.50;98.20;;;;;;5007036;28;20468;-74
2023/01/07 05:12:34;;;;;;;1.60;1.10;;;10.50;98.20;;;;;;5009456;28;20513;-74
2023/01/07 05:15:01;;;;;;;1.60;1.17;;;10.50;98.20;;;;;;5007761;28;20484;-74
2023/01/07 05:17:29;;;;;;;1.60;1.07;;;10.40;98.20;;;;;;5007432;28;20494;-74
2023/01/07 05:19:56;;;;;;;1.60;1.13;;;10.40;98.20;;;;;;5005132;28;20469;-75
2023/01/07 05:22:22;;;;;;;1.60;1.20;;;10.40;98.20;;;;;;5005985;28;20959;-75
2023/01/07 05:24:49;;;;;;;1.60;1.20;;;10.40;98.20;;;;;;5009344;28;20511;-75
2023/01/07 05:27:16;;;;;;;1.60;1.10;;;10.40;98.20;;;;;;5006249;28;20487;-75
2023/01/07 05:29:43;;;;;;;1.60;1.10;;;10.50;98.20;;;;;;5009804;28;20479;-75
2023/01/07 05:32:09;;;;;;;1.60;1.03;;;10.50;98.20;;;;;;5005537;28;20910;-75
2023/01/07 05:34:37;;;;;;;1.60;1.10;;;10.50;98.20;;;;;;5011692;28;21054;-75
2023/01/07 05:37:04;;;;;;;1.60;1.20;;;10.60;98.20;;;;;;5003707;28;20483;-75
2023/01/07 05:39:31;;;;;;;1.60;1.10;;;10.60;98.20;;;;;;5011616;28;20456;-77
2023/01/07 05:41:58;;;;;;;1.60;1.20;;;10.60;98.20;;;;;;5003542;28;20483;-75
2023/01/07 05:44:25;;;;;;;1.60;1.07;;;10.70;98.20;;;;;;5012871;28;20660;-75
2023/01/07 05:46:52;;;;;;;1.60;1.20;;;10.70;98.20;;;;;;5002419;28;20890;-75
2023/01/07 05:49:19;;;;;;;1.60;1.10;;;10.70;98.20;;;;;;5012825;28;20465;-75
2023/01/07 05:51:47;;;;;;;1.60;1.10;;;10.70;98.20;;;;;;5003704;28;20602;-75
2023/01/07 05:54:14;;;;;;;1.60;1.20;;;10.70;98.20;;;;;;5012867;28;20901;-75
2023/01/07 05:56:41;;;;;;;1.60;1.10;;;10.70;98.20;;;;;;5000630;28;20504;-75
2023/01/07 05:59:08;;;;;;;1.60;1.10;;;10.70;98.20;;;;;;5011476;28;20465;-75
2023/01/07 06:01:34;;;;;;;1.60;1.10;;;10.70;98.20;;;;;;5001248;28;20535;-76
2023/01/07 06:04:01;;;;;;;1.60;1.10;;;10.70;98.20;;;;;;5011680;28;20498;-75
2023/01/07 06:06:28;;;;;;;1.60;1.10;;;10.70;98.20;;;;;;4999759;28;20928;-75
2023/01/07 06:08:56;;;;;;;1.60;1.20;;;10.70;98.20;;;;;;5015032;28;20467;-75
2023/01/07 06:11:23;;;;;;;1.60;1.10;;;10.70;98.20;;;;;;4997088;28;20479;-75
2023/01/07 06:13:50;;;;;;;1.60;1.13;;;10.70;98.20;;;;;;5015228;28;20487;-75
2023/01/07 06:16:17;;;;;;;1.60;1.10;;;10.70;98.20;;;;;;4998092;28;20483;-75
2023/01/07 06:18:43;;;;;;;1.60;1.20;;;10.70;98.20;;;;;;5014941;28;21040;-76
2023/01/07 06:21:10;;;;;;;1.60;1.10;;;10.80;98.20;;;;;;4995856;28;20502;-76
2023/01/07 06:23:37;;;;;;;1.60;1.20;;;10.80;98.20;;;;;;5015163;28;20455;-75
2023/01/07 06:26:05;;;;;;;1.60;1.10;;;10.80;98.20;;;;;;4996839;28;20519;-75
2023/01/07 06:28:32;;;;;;;1.60;1.20;;;10.80;98.20;;;;;;5017048;28;20992;-75
2023/01/07 06:30:59;;;;;;;1.60;1.20;;;10.80;98.20;;;;;;4992971;28;20456;-75
2023/01/07 06:33:25;;;;;;;1.60;1.10;;;10.80;98.20;;;;;;5018136;28;20460;-75
2023/01/07 06:35:52;;;;;;;1.60;1.20;;;10.80;98.20;;;;;;4994078;28;20574;-75
2023/01/07 06:38:19;;;;;;;2.60;2.40;;;10.80;98.20;;;;;;5016573;28;20467;-76
2023/01/07 06:40:46;;;;;;;1.60;1.10;;;10.80;98.20;;;;;;5002204;28;20464;-75
2023/01/07 06:43:14;;;;;;;1.60;1.30;;;10.80;98.20;;;;;;5017116;28;20622;-75
2023/01/07 06:45:40;;;;;;;1.60;1.20;;;10.80;98.20;;;;;;5002384;28;20491;-75
2023/01/07 06:48:07;;;;;;;1.60;1.20;;;10.80;98.20;;;;;;5004860;28;20476;-75
2023/01/07 06:50:34;;;;;;;1.60;1.17;;;10.80;98.20;;;;;;5003770;28;20467;-75
2023/01/07 06:53:01;;;;;;;1.60;1.20;;;10.80;98.20;;;;;;5009673;28;20494;-75
2023/01/07 06:55:27;;;;;;;1.60;1.10;;;10.80;98.20;;;;;;5004378;28;20502;-76
2023/01/07 06:57:54;;;;;;;1.60;1.20;;;10.80;98.20;;;;;;5008394;28;20498;-75
2023/01/07 07:00:22;;;;;;;1.60;1.10;;;10.80;98.20;;;;;;5004506;28;20456;-75
2023/01/07 07:02:49;;;;;;;1.60;1.10;;;10.80;98.20;;;;;;5007976;28;20483;-75
2023/01/07 07:05:16;;;;;;;1.60;1.10;;;10.80;98.20;;;;;;5006267;28;20496;-76
2023/01/07 07:07:43;;;;;;;1.60;1.10;;;10.80;98.20;;;;;;5008228;28;20514;-75
2023/01/07 07:10:10;;;;;;;1.60;1.30;;;10.80;98.20;;;;;;5005877;28;20479;-75
2023/01/07 07:12:37;;;;;;;1.60;1.10;;;10.80;98.20;;;;;;5009631;28;20562;-75
2023/01/07 07:15:06;;;;;;;1.60;1.07;;;10.80;98.20;;;;;;5005687;28;20492;-75
2023/01/07 07:17:34;;;;;;;1.60;1.10;;;10.70;98.20;;;;;;5007518;28;20486;-76
2023/01/07 07:20:01;;;;;;;1.60;1.20;;;10.70;98.20;;;;;;5006040;28;20682;-75
2023/01/07 07:22:28;;;;;;;1.60;1.23;;;10.70;98.20;;;;;;5006454;28;20497;-75
2023/01/07 07:24:54;;;;;;;1.60;1.10;;;10.70;98.20;;;;;;5007535;28;20859;-75
2023/01/07 07:27:21;;;;;;;1.60;1.10;;;10.70;98.20;;;;;;5007585;28;20491;-75
2023/01/07 07:29:48;;;;;;;1.60;1.20;;;10.70;98.20;;;;;;5008830;28;20482;-76
2023/01/07 07:32:14;;;;;;;1.60;1.20;;;10.70;98.20;;;;;;5010398;28;20510;-75
2023/01/07 07:34:43;;;;;;;1.70;1.43;;;10.70;98.20;;;;;;5010461;28;21015;-75
2023/01/07 07:37:09;;;;;;;1.60;1.20;;;10.70;98.20;;;;;;5005064;28;21103;-77
2023/01/07 07:39:36;;;;;;;1.60;1.20;;;10.70;98.20;;;;;;5013497;28;20456;-75
2023/01/07 07:42:04;;;;;;;1.60;1.20;;;10.70;98.20;;;;;;5005586;28;20494;-75
2023/01/07 07:44:30;;;;;;;1.60;1.10;;;10.70;98.20;;;;;;5013283;28;20481;-75
2023/01/07 07:46:57;;;;;;;1.60;1.20;;;10.70;98.20;;;;;;5005712;28;20487;-76
2023/01/07 07:49:24;;;;;;;1.60;1.20;;;10.80;98.20;;;;;;5013781;28;20467;-76
2023/01/07 07:51:52;;;;;;;1.60;1.20;;;10.80;98.20;;;;;;5006438;28;20482;-77
2023/01/07 07:54:19;;;;;;;1.60;1.20;;;10.80;98.20;;;;;;5015824;28;20480;-74
2023/01/07 07:56:46;;;;;;;1.60;1.20;;;10.80;98.20;;;;;;5002522;28;20487;-75
2023/01/07 07:59:12;;;;;;;1.60;1.10;;;10.80;98.20;;;;;;5011881;28;20456;-74
2023/01/07 08:01:39;;;;;;;1.60;1.00;;;10.80;98.20;;;;;;5004705;28;20491;-74
2023/01/07 08:04:06;;;;;;;1.60;1.10;;;10.70;98.20;;;;;;5014280;28;20879;-75
2023/01/07 08:06:33;;;;;;;1.60;1.10;;;10.80;98.20;;;;;;5002923;28;20494;-75
2023/01/07 08:09:01;;;;;;;1.60;1.10;;;10.80;98.20;;;;;;5013607;28;20944;-75
2023/01/07 08:11:28;;;;;;;1.60;1.20;;;10.80;98.20;;;;;;5002606;28;20577;-75
2023/01/07 08:13:55;;;;;;;1.60;1.10;;;10.80;98.20;;;;;;5016534;28;20984;-75
2023/01/07 08:16:21;;;;;;;1.60;1.20;;;10.80;98.20;;;;;;4997998;28;20566;-75
2023/01/07 08:18:48;;;;;;;1.60;1.20;;;10.80;98.20;;;;;;5017162;28;20468;-75
2023/01/07 08:21:15;;;;;;;1.60;1.20;;;10.80;98.20;;;;;;5001673;28;21077;-75
2023/01/07 08:23:41;;;;;;;1.60;1.10;;;10.80;98.20;;;;;;5017218;28;20494;-74
2023/01/07 08:26:10;;;;;;;1.60;1.20;;;10.90;98.20;;;;;;4995827;28;20475;-76
2023/01/07 08:28:37;;;;;;;1.70;1.53;;;10.90;98.20;;;;;;5019072;28;20466;-74
2023/01/07 08:31:06;;;;;;;1.60;1.13;;;10.90;98.20;;;;;;4998747;28;20636;-75
2023/01/07 08:33:36;;;;;;;1.60;1.10;;;11.00;98.20;;;;;;5014869;28;20463;-75
2023/01/07 08:36:03;;;;;;;1.60;1.10;;;10.90;98.20;;;;;;4996873;28;20468;-75
2023/01/07 08:38:31;;;;;;;1.60;1.10;;;11.00;98.20;;;;;;5018244;28;20465;-75
2023/01/07 08:40:58;;;;;;;1.60;1.10;;;11.00;98.20;;;;;;4997684;28;20463;-75
2023/01/07 08:43:27;;;;;;;1.60;1.20;;;11.00;98.20;;;;;;5019877;28;20467;-74
2023/01/07 08:45:54;;;;;;;1.60;1.20;;;11.00;98.20;;;;;;4996508;28;20651;-74
2023/01/07 08:48:20;;;;;;;1.70;1.10;;;11.00;98.20;;;;;;5018525;28;20885;-75
2023/01/07 08:50:50;;;;;;;1.60;1.10;;;11.00;98.20;;;;;;5000648;28;20464;-74
2023/01/07 08:53:18;;;;;;;1.60;1.10;;;11.10;98.20;;;;;;5021256;28;20966;-74
2023/01/07 08:55:44;;;;;;;1.60;1.10;;;11.10;98.20;;;;;;5005408;28;21139;-75
2023/01/07 08:58:11;;;;;;;1.60;1.20;;;11.10;98.20;;;;;;5006682;28;20538;-74
2023/01/07 09:00:39;;;;;;;1.60;1.10;;;11.10;98.20;;;;;;5007869;28;20554;-75
2023/01/07 09:03:06;;;;;;;1.60;1.10;;;11.10;98.20;;;;;;5011053;28;21014;-74
2023/01/07 09:05:33;;;;;;;1.60;1.20;;;11.10;98.20;;;;;;5007321;28;20492;-75
2023/01/07 09:08:01;;;;;;;1.60;1.10;;;11.20;98.20;;;;;;5007270;28;21082;-75
2023/01/07 09:10:28;;;;;;;1.60;1.10;;;11.20;98.20;;;;;;5006527;28;20464;-74
2023/01/07 09:12:55;;;;;;;1.60;1.10;;;11.20;98.20;;;;;;5008345;28;20483;-74
2023/01/07 09:15:22;;;;;;;1.60;1.10;;;11.30;98.20;;;;;;5005665;28;20484;-75
2023/01/07 09:17:50;;;;;;;1.60;1.00;;;11.30;98.20;;;;;;5009870;28;20479;-75
2023/01/07 09:20:17;;;;;;;1.60;1.13;;;11.40;98.20;;;;;;5006805;28;20467;-75
2023/01/07 09:22:44;;;;;;;1.60;1.10;;;11.40;98.20;;;;;;5010586;28;20514;-75
2023/01/07 09:25:11;;;;;;;2.17;1.97;;;11.40;98.20;;;;;;5006795;28;20498;-75
2023/01/07 09:27:38;;;;;;;1.60;1.20;;;11.40;98.20;;;;;;5007890;28;20479;-75
2023/01/07 09:30:08;;;;;;;1.50;1.00;;;11.50;98.20;;;;;;5002765;28;20738;-75
2023/01/07 09:32:35;;;;;;;1.80;1.47;;;11.50;98.20;;;;;;5008847;28;20487;-75
2023/01/07 09:35:03;;;;;;;1.60;1.10;;;11.50;98.20;;;;;;5007405;28;20488;-73
2023/01/07 09:37:30;;;;;;;1.60;1.00;;;11.50;98.20;;;;;;5003860;28;20479;-75
2023/01/07 09:39:59;;;;;;;1.60;1.10;;;11.50;98.20;;;;;;5006901;28;20491;-75
2023/01/07 09:42:33;;;;;;;1.60;1.00;;;11.50;98.20;;;;;;5008064;28;20479;-75
2023/01/07 09:45:09;;;;;;;1.60;1.10;;;11.40;98.20;;;;;;5005980;28;21020;-75
2023/01/07 09:47:37;;;;;;;1.60;1.10;;;11.50;98.20;;;;;;5005842;28;20478;-74
2023/01/07 09:50:14;;;;;;;1.60;1.10;;;11.50;98.20;;;;;;5005076;28;20520;-74
2023/01/07 09:52:45;;;;;;;1.60;1.10;;;11.50;98.20;;;;;;5010731;28;20479;-74
2023/01/07 09:55:20;;;;;;;1.60;1.10;;;11.50;98.20;;;;;;5003333;28;20488;-75
2023/01/07 09:57:47;;;;;;;1.60;1.10;;;11.50;98.20;;;;;;5004362;28;20916;-75
2023/01/07 10:00:17;;;;;;;1.60;1.10;;;11.50;98.20;;;;;;5003556;28;20460;-76
2023/01/07 10:02:59;;;;;;;1.60;1.00;;;11.60;98.20;;;;;;5009130;28;20483;-76
2023/01/07 10:05:35;;;;;;;1.60;1.10;;;11.60;98.20;;;;;;5005845;28;20499;-75
2023/01/07 10:08:15;;;;;;;1.60;1.10;;;11.60;98.20;;;;;;4999525;28;21070;-75
2023/01/07 10:10:50;;;;;;;1.60;1.00;;;11.60;98.20;;;;;;5003095;28;20816;-75
2023/01/07 10:13:44;;;;;;;1.60;1.10;;;11.70;98.20;;;;;;4992585;28;20857;-75
2023/01/07 10:16:18;;;;;;;1.60;1.10;;;11.70;98.20;;;;;;4995407;28;20525;-75
2023/01/07 10:18:52;;;;;;;1.60;1.00;;;11.70;98.20;;;;;;5014463;28;20833;-75
2023/01/07 10:21:25;;;;;;;1.60;1.17;;;11.80;98.20;;;;;;4997784;28;20483;-75
2023/01/07 10:23:57;;;;;;;1.57;1.10;;;11.80;98.20;;;;;;5010452;28;20460;-76
2023/01/07 10:26:31;;;;;;;1.60;1.13;;;11.80;98.20;;;;;;4996245;28;20491;-75
2023/01/07 10:29:04;;;;;;;1.60;1.10;;;11.80;98.20;;;;;;5007560;28;21039;-75
2023/01/07 10:31:31;;;;;;;1.60;1.20;;;11.90;98.20;;;;;;4998199;28;20891;-75
2023/01/07 10:33:59;;;;;;;1.60;1.30;;;11.90;98.20;;;;;;5009340;28;20842;-75
2023/01/07 10:36:31;;;;;;;1.60;1.17;;;11.90;98.20;;;;;;4994753;28;20522;-75
2023/01/07 10:39:08;;;;;;;1.60;1.00;;;11.90;98.20;;;;;;5011749;28;20460;-75
2023/01/07 10:41:43;;;;;;;1.60;1.10;;;12.00;98.20;;;;;;4992349;28;20925;-74
2023/01/07 10:44:41;;;;;;;1.60;1.10;;;12.00;98.20;;;;;;5001375;28;20554;-75
2023/01/07 10:47:18;;;;;;;2.23;2.03;;;12.10;98.20;;;;;;4999995;28;20487;-75
2023/01/07 10:50:00;;;;;;;1.60;1.00;;;12.10;98.20;;;;;;5005983;28;20855;-75
2023/01/07 10:52:41;;;;;;;1.60;1.00;;;12.10;98.20;;;;;;5004842;28;20494;-73
2023/01/07 10:55:25;;;;;;;1.60;1.10;;;12.10;98.20;;;;;;5003131;28;20918;-74
2023/01/07 10:57:52;;;;;;;1.60;1.10;;;12.10;98.20;;;;;;5005212;28;20478;-74
2023/01/07 11:00:19;;;;;;;1.60;1.10;;;12.10;98.20;;;;;;5002955;28;20546;-74
2023/01/07 11:02:51;;;;;;;1.60;1.20;;;12.10;98.20;;;;;;5008026;28;21089;-75
2023/01/07 11:05:20;;;;;;;1.57;1.00;;;12.10;98.20;;;;;;5005305;28;20697;-75
2023/01/07 11:07:52;;;;;;;1.97;1.67;;;12.10;98.20;;;;;;5008271;28;20906;-74
2023/01/07 11:10:22;;;;;;;1.60;1.10;;;12.10;98.20;;;;;;5006333;28;20468;-74
2023/01/07 11:12:51;;;;;;;1.57;1.00;;;12.10;98.20;;;;;;5010974;28;20482;-74
2023/01/07 11:15:23;;;;;;;1.60;1.00;;;12.00;98.20;;;;;;5006277;28;20567;-74
2023/01/07 11:17:53;;;;;;;1.57;1.00;;;12.10;98.20;;;;;;5008674;28;20487;-75
2023/01/07 11:20:43;;;;;;;1.60;1.10;;;12.10;98.20;;;;;;5004678;28;20456;-75
2023/01/07 11:23:32;;;;;;;1.57;1.03;;;12.10;98.20;;;;;;5007305;28;20484;-74
2023/01/07 11:26:11;;;;;;;1.60;1.00;;;12.10;98.20;;;;;;4992511;28;20686;-74
2023/01/07 11:28:43;;;;;;;1.60;1.00;;;12.10;98.20;;;;;;5012724;28;20870;-74
2023/01/07 11:31:11;;;;;;;1.60;1.10;;;12.20;98.20;;;;;;4993333;28;20514;-75
2023/01/07 11:33:41;;;;;;;1.70;1.33;;;12.20;98.20;;;;;;5013470;28;20523;-74
2023/01/07 11:36:09;;;;;;;1.57;1.00;;;12.20;98.20;;;;;;4994391;28;20933;-75
2023/01/07 11:38:38;;;;;;;1.60;1.10;;;12.20;98.20;;;;;;5015912;28;20908;-75
2023/01/07 11:41:17;;;;;;;1.60;1.00;;;12.30;98.20;;;;;;4992571;28;20468;-75
2023/01/07 11:43:48;;;;;;;1.60;1.10;;;12.20;98.20;;;;;;5012626;28;20814;-75
2023/01/07 11:46:16;;;;;;;1.60;1.10;;;12.20;98.20;;;;;;4995049;28;20940;-75
2023/01/07 11:48:51;;;;;;;1.90;1.70;;;12.20;98.20;;;;;;5013124;28;20492;-75
2023/01/07 11:51:19;;;;;;;1.60;1.10;;;12.20;98.20;;;;;;4994928;28;20577;-75
2023/01/07 11:53:53;;;;;;;1.60;1.10;;;12.20;98.20;;;;;;5012977;28;20550;-75
2023/01/07 11:56:26;;;;;;;1.60;1.10;;;12.30;98.20;;;;;;4993120;28;20491;-75
2023/01/07 11:59:16;;;;;;;1.60;1.10;;;12.30;98.20;;;;;;4998514;28;21283;-75
2023/01/07 12:01:44;;;;;;;1.60;1.00;;;12.30;98.20;;;;;;4996762;28;20482;-75
2023/01/07 12:04:19;;;;;;;1.60;1.00;;;12.30;98.20;;;;;;5009208;28;20530;-75
2023/01/07 12:06:48;;;;;;;1.60;1.10;;;12.30;98.20;;;;;;4994977;28;20711;-75
2023/01/07 12:09:35;;;;;;;1.53;1.00;;;12.30;98.20;;;;;;5008733;28;20488;-75
2023/01/07 12:12:30;;;;;;;1.60;1.10;;;12.30;98.20;;;;;;4998642;28;20501;-73
2023/01/07 12:14:58;;;;;;;1.60;1.00;;;12.40;98.20;;;;;;5003160;28;20534;-75
2023/01/07 12:17:29;;;;;;;1.60;1.10;;;12.50;98.20;;;;;;5003473;28;20483;-76
2023/01/07 12:20:21;;;;;;;1.60;1.10;;;12.50;98.20;;;;;;5002120;28;20486;-75
2023/01/07 12:22:57;;;;;;;1.60;1.10;;;12.40;98.20;;;;;;5005668;28;20487;-74
2023/01/07 12:25:34;;;;;;;1.50;1.00;;;12.40;98.20;;;;;;5002030;28;20860;-75
2023/01/07 12:28:10;;;;;;;1.60;1.10;;;12.40;98.20;;;;;;5004133;28;20582;-75
2023/01/07 12:31:01;;;;;;;1.57;1.00;;;12.40;98.20;;;;;;5002043;28;20488;-75
2023/01/07 12:33:52;;;;;;;1.60;1.07;;;12.40;98.20;;;;;;4990024;28;20473;-75
2023/01/07 12:36:30;;;;;;;1.80;1.60;;;12.40;98.20;;;;;;4994001;28;20483;-75
2023/01/07 12:39:02;;;;;;;1.60;1.13;;;12.30;98.20;;;;;;5012377;28;20507;-75
2023/01/07 12:41:34;;;;;;;1.60;1.10;;;12.30;98.20;;;;;;4989320;28;20488;-75
2023/01/07 12:44:03;;;;;;;1.60;1.10;;;12.20;98.20;;;;;;4999369;28;20510;-75
2023/01/07 12:46:35;;;;;;;1.57;1.10;;;12.10;98.20;;;;;;4993949;28;20537;-75
2023/01/07 12:49:07;;;;;;;1.60;1.10;;;12.10;98.20;;;;;;5008928;28;20496;-74
2023/01/07 12:51:40;;;;;;;1.60;1.10;;;12.10;98.20;;;;;;4995791;28;20507;-75
2023/01/07 12:54:15;;;;;;;1.57;1.10;;;12.10;98.20;;;;;;5009165;28;20490;-75
2023/01/07 12:56:49;;;;;;;1.60;1.10;;;12.20;98.20;;;;;;4995387;28;20490;-75
2023/01/07 12:59:21;;;;;;;1.60;1.20;;;12.30;98.20;;;;;;5008732;28;20460;-75
2023/01/07 13:01:55;;;;;;;1.60;1.00;;;12.50;98.20;;;;;;4998737;28;20486;-75
2023/01/07 13:04:38;;;;;;;1.50;1.00;;;12.60;98.20;;;;;;5008635;28;20878;-75
2023/01/07 13:07:14;;;;;;;1.57;1.00;;;12.70;98.20;;;;;;4999001;28;21002;-75